Time;durP1;ratioP1;P1;durP2;ratioP2;P2;SDS_P1;SDS_P2;PMS_P1;PMS_P2;Temp;Humidity;BMP_temperature;BMP_pressure;BME280_temperature;BME280_humidity;BME280_pressure;Samples;Min_cycle;Max_cycle;Signal;HPM_P1;HPM_P2
2022/06/14 00:02:22;;;;;;;7.20;3.00;;;;;;;15.95;63.51;98686.97;5032547;28;20197;-68
2022/06/14 00:04:48;;;;;;;4.23;2.90;;;;;;;15.58;66.07;98688.31;5033638;28;20248;-68
2022/06/14 00:07:15;;;;;;;5.27;3.43;;;;;;;15.76;64.96;98680.13;5033431;28;20768;-68
2022/06/14 00:09:41;;;;;;;4.67;3.10;;;;;;;15.47;66.62;98683.81;5033639;28;20316;-68
2022/06/14 00:12:08;;;;;;;6.63;3.07;;;;;;;15.37;66.70;98676.34;5033651;28;20202;-68
2022/06/14 00:14:34;;;;;;;8.60;3.50;;;;;;;15.26;67.71;98671.78;5033657;28;20212;-68
2022/06/14 00:17:01;;;;;;;5.10;3.17;;;;;;;15.15;68.28;98679.84;5033291;28;20624;-68
2022/06/14 00:19:27;;;;;;;7.53;3.50;;;;;;;15.23;66.92;98685.63;5033480;28;20317;-68
2022/06/14 00:21:56;;;;;;;9.40;3.80;;;;;;;15.21;68.54;98681.56;5033583;28;20213;-68
2022/06/14 00:24:23;;;;;;;6.43;3.13;;;;;;;15.29;67.91;98679.34;5033584;28;20304;-68
2022/06/14 00:26:50;;;;;;;4.93;3.63;;;;;;;15.18;68.92;98671.31;5033200;28;20680;-68
2022/06/14 00:29:16;;;;;;;7.80;3.50;;;;;;;15.17;68.36;98670.50;5033459;28;20222;-68
2022/06/14 00:31:42;;;;;;;5.83;3.20;;;;;;;15.33;65.33;98669.00;5033463;28;20288;-68
2022/06/14 00:34:09;;;;;;;8.13;3.80;;;;;;;15.53;64.79;98669.47;5033143;28;20578;-68
2022/06/14 00:36:36;;;;;;;5.83;3.70;;;;;;;15.48;63.71;98666.66;5033398;28;20300;-68
2022/06/14 00:39:06;;;;;;;7.33;3.00;;;;;;;15.43;64.18;98656.63;5033270;28;20235;-67
2022/06/14 00:41:45;;;;;;;5.00;3.00;;;;;;;15.35;68.00;98667.75;5034270;28;20281;-68
2022/06/14 00:44:21;;;;;;;8.30;3.47;;;;;;;15.41;65.94;98661.44;5037470;28;20272;-68
2022/06/14 00:47:00;;;;;;;10.03;3.37;;;;;;;15.20;68.71;98677.25;5037427;28;20185;-68
2022/06/14 00:49:35;;;;;;;5.30;3.30;;;;;;;15.22;67.76;98670.63;5019249;28;20618;-68
2022/06/14 00:52:09;;;;;;;5.10;3.33;;;;;;;15.31;65.24;98669.22;5019733;28;20198;-67
2022/06/14 00:54:41;;;;;;;6.27;3.50;;;;;;;15.14;68.00;98664.78;5019714;28;20197;-68
2022/06/14 00:57:22;;;;;;;7.37;3.77;;;;;;;15.03;68.24;98666.44;5019672;28;20623;-68
2022/06/14 00:59:54;;;;;;;6.83;3.30;;;;;;;15.04;67.83;98662.69;5037016;28;20241;-68
2022/06/14 01:02:25;;;;;;;5.80;3.50;;;;;;;14.93;69.09;98668.06;5037121;28;20277;-68
2022/06/14 01:04:53;;;;;;;8.17;3.80;;;;;;;14.96;67.51;98665.72;5037007;28;20556;-68
2022/06/14 01:07:28;;;;;;;7.57;3.50;;;;;;;14.93;67.03;98662.69;5036686;28;20577;-68
2022/06/14 01:10:02;;;;;;;6.17;3.17;;;;;;;14.96;68.17;98657.69;5036685;28;20182;-68
2022/06/14 01:12:33;;;;;;;6.00;3.57;;;;;;;15.01;65.53;98662.38;5036648;28;20728;-68
2022/06/14 01:15:06;;;;;;;6.63;3.63;;;;;;;15.00;66.64;98656.19;5036573;28;20658;-68
2022/06/14 01:17:40;;;;;;;7.93;3.40;;;;;;;14.96;67.63;98657.69;5036511;28;20664;-68
2022/06/14 01:20:07;;;;;;;5.90;3.60;;;;;;;14.95;66.14;98657.91;5036718;28;20210;-68
2022/06/14 01:22:33;;;;;;;7.53;3.90;;;;;;;14.89;68.36;98646.28;5036312;28;20304;-68
2022/06/14 01:25:02;;;;;;;6.40;3.27;;;;;;;14.92;67.94;98645.81;5036693;28;20206;-68
2022/06/14 01:27:31;;;;;;;6.03;3.57;;;;;;;14.94;68.23;98643.72;5036572;28;20205;-68
2022/06/14 01:30:04;;;;;;;6.57;3.60;;;;;;;15.01;65.76;98649.75;5018688;28;20208;-68
2022/06/14 01:32:34;;;;;;;8.07;3.50;;;;;;;14.99;67.82;98651.88;5036580;28;20201;-68
2022/06/14 01:35:06;;;;;;;9.57;3.90;;;;;;;14.98;65.16;98647.56;5036533;28;20190;-68
2022/06/14 01:37:34;;;;;;;7.30;3.43;;;;;;;14.96;67.51;98652.34;5036647;28;20197;-68
2022/06/14 01:40:04;;;;;;;7.90;3.70;;;;;;;14.94;65.71;98642.91;5036293;28;20230;-68
2022/06/14 01:42:56;;;;;;;7.60;4.10;;;;;;;14.85;65.95;98647.78;5036046;28;20197;-68
2022/06/14 01:45:32;;;;;;;7.07;3.50;;;;;;;14.82;68.20;98644.75;5035565;28;20205;-68
2022/06/14 01:48:26;;;;;;;7.27;3.80;;;;;;;14.75;69.64;98644.84;5018994;28;20631;-68
2022/06/14 01:54:30;;;;;;;5.93;3.50;;;;;;;14.44;70.28;98649.69;5035148;28;20652;-68
2022/06/14 01:57:32;;;;;;;5.03;3.30;;;;;;;14.34;71.51;98657.47;5014837;28;20263;-67
2022/06/14 02:00:12;;;;;;;7.33;3.73;;;;;;;14.34;70.81;98655.59;5011288;28;20282;-68
2022/06/14 02:02:50;;;;;;;6.00;3.30;;;;;;;14.32;71.71;98664.88;5035998;28;20196;-68
2022/06/14 02:05:30;;;;;;;7.67;3.83;;;;;;;14.21;72.89;98663.00;5035621;28;20620;-68
2022/06/14 02:08:05;;;;;;;7.20;3.80;;;;;;;14.06;72.68;98665.25;5018221;28;20234;-68
2022/06/14 02:10:35;;;;;;;5.13;3.63;;;;;;;13.91;73.70;98657.59;5035848;28;20293;-68
2022/06/14 02:13:18;;;;;;;13.37;3.87;;;;;;;13.99;74.20;98661.81;5035794;28;20299;-68
2022/06/14 02:15:56;;;;;;;8.33;3.77;;;;;;;13.93;74.44;98658.19;5035466;28;20201;-68
2022/06/14 02:18:29;;;;;;;7.43;3.63;;;;;;;13.95;75.66;98648.09;5018083;28;20315;-68
2022/06/14 02:21:28;;;;;;;6.87;3.77;;;;;;;13.85;75.21;98647.81;5035698;28;20277;-68
2022/06/14 02:24:18;;;;;;;8.70;3.80;;;;;;;13.96;74.97;98647.06;5002143;28;20205;-67
2022/06/14 02:27:14;;;;;;;8.57;4.07;;;;;;;13.84;76.42;98650.72;5035273;28;20713;-68
2022/06/14 02:29:44;;;;;;;7.97;4.10;;;;;;;13.74;76.27;98645.91;5017610;28;20230;-68
2022/06/14 02:32:45;;;;;;;6.93;3.73;;;;;;;13.75;77.19;98652.06;5035111;28;20661;-68
2022/06/14 02:35:21;;;;;;;5.43;3.80;;;;;;;13.76;78.09;98649.19;5035404;28;20197;-68
2022/06/14 02:37:55;;;;;;;7.00;4.03;;;;;;;13.77;77.71;98648.13;5035701;28;20239;-68
2022/06/14 02:40:28;;;;;;;6.53;4.20;;;;;;;13.65;77.71;98647.22;5001880;28;20214;-67
2022/06/14 02:42:59;;;;;;;6.97;4.20;;;;;;;13.73;76.72;98648.78;5035271;28;20194;-68
2022/06/14 02:45:38;;;;;;;7.73;4.23;;;;;;;13.72;77.16;98642.66;5035127;28;20276;-68
2022/06/14 02:48:17;;;;;;;7.60;4.37;;;;;;;13.76;77.28;98641.16;5034884;28;20233;-68
2022/06/14 02:50:55;;;;;;;8.43;4.30;;;;;;;13.74;77.24;98643.22;5035045;28;20194;-68
2022/06/14 02:53:30;;;;;;;6.80;4.50;;;;;;;13.75;77.01;98642.16;5017448;28;20193;-68
2022/06/14 02:56:12;;;;;;;6.00;4.00;;;;;;;13.71;77.05;98641.00;5034914;28;20280;-67
2022/06/14 02:58:58;;;;;;;8.10;4.47;;;;;;;13.65;78.31;98652.59;5034556;28;20320;-68
2022/06/14 03:01:42;;;;;;;7.30;4.17;;;;;;;13.58;78.98;98641.16;5034541;28;20645;-68
2022/06/14 03:04:17;;;;;;;6.37;4.37;;;;;;;13.61;79.30;98645.25;5034532;28;20637;-67
2022/06/14 03:06:49;;;;;;;7.33;4.20;;;;;;;13.51;79.44;98636.91;5034624;28;20224;-68
2022/06/14 03:09:21;;;;;;;7.63;4.60;;;;;;;13.55;79.95;98646.13;5016970;28;20312;-68
2022/06/14 03:11:55;;;;;;;6.77;4.60;;;;;;;13.50;80.01;98649.47;5034220;28;20281;-68
2022/06/14 03:14:24;;;;;;;5.83;4.07;;;;;;;13.58;79.76;98645.69;5034153;28;20226;-68
2022/06/14 03:17:09;;;;;;;7.47;4.30;;;;;;;13.43;80.55;98642.59;5034480;28;20614;-67
2022/06/14 03:19:43;;;;;;;5.37;4.13;;;;;;;13.47;80.19;98651.78;5034031;28;20320;-68
2022/06/14 03:22:24;;;;;;;5.37;4.10;;;;;;;13.56;78.68;98653.91;5034034;28;20203;-67
2022/06/14 03:25:43;;;;;;;6.50;4.43;;;;;;;13.68;77.89;98652.13;5034051;28;20281;-68
2022/06/14 03:28:23;;;;;;;7.40;4.70;;;;;;;13.52;78.89;98647.38;5009508;28;20349;-68
2022/06/14 03:31:09;;;;;;;12.00;4.43;;;;;;;13.47;79.32;98647.25;5034046;28;20276;-67
2022/06/14 03:33:57;;;;;;;6.53;4.40;;;;;;;13.43;80.07;98646.06;5033777;28;20240;-68
2022/06/14 03:36:23;;;;;;;6.17;3.80;;;;;;;13.34;79.80;98644.72;5033475;28;20280;-68
2022/06/14 03:38:57;;;;;;;5.40;4.07;;;;;;;13.21;80.33;98639.50;5033690;28;20715;-68
2022/06/14 03:41:27;;;;;;;7.63;4.67;;;;;;;13.22;81.33;98638.50;5034386;28;20193;-67
2022/06/14 03:43:58;;;;;;;6.53;4.30;;;;;;;13.19;80.98;98641.59;5017093;28;20728;-68
2022/06/14 03:46:35;;;;;;;7.93;4.50;;;;;;;13.18;81.04;98639.16;5033722;28;20190;-68
2022/06/14 03:49:11;;;;;;;5.07;4.20;;;;;;;13.21;81.87;98636.03;5033455;28;20665;-67
2022/06/14 03:52:05;;;;;;;8.37;4.47;;;;;;;13.22;82.18;98651.84;5033862;28;20275;-68
2022/06/14 03:54:50;;;;;;;8.47;4.33;;;;;;;13.22;82.24;98648.34;5033806;28;20197;-68
2022/06/14 03:57:25;;;;;;;7.40;4.57;;;;;;;13.11;82.48;98655.22;5033770;28;20243;-68
2022/06/14 04:00:10;;;;;;;11.20;4.50;;;;;;;13.22;81.77;98646.50;5033660;28;20232;-68
2022/06/14 04:02:55;;;;;;;7.33;4.77;;;;;;;13.28;81.87;98642.94;5033896;28;20539;-68
2022/06/14 04:05:36;;;;;;;5.63;4.27;;;;;;;13.29;81.48;98649.91;5016658;28;20300;-67
2022/06/14 04:08:29;;;;;;;8.03;4.93;;;;;;;13.27;82.51;98646.66;5017113;28;20315;-67
2022/06/14 04:11:06;;;;;;;7.00;4.30;;;;;;;13.39;82.36;98646.72;5015684;28;20193;-68
2022/06/14 04:13:42;;;;;;;8.33;4.27;;;;;;;13.37;82.71;98649.63;5033547;28;20193;-67
2022/06/14 04:16:52;;;;;;;9.33;4.60;;;;;;;13.55;81.83;98648.78;5033383;28;20288;-68
2022/06/14 04:19:41;;;;;;;5.73;4.73;;;;;;;13.52;81.48;98642.03;4998110;28;20231;-68
2022/06/14 04:22:19;;;;;;;7.03;5.13;;;;;;;13.49;81.59;98647.84;5015619;28;20197;-67
2022/06/14 04:24:55;;;;;;;8.40;5.57;;;;;;;13.49;82.00;98642.50;5032876;28;20192;-67
2022/06/14 04:27:40;;;;;;;9.63;5.23;;;;;;;13.58;82.85;98649.19;5016233;28;20577;-67
2022/06/14 04:30:36;;;;;;;7.23;5.00;;;;;;;13.70;81.56;98644.69;5032888;28;20629;-67
2022/06/14 04:33:18;;;;;;;8.63;4.87;;;;;;;13.81;82.40;98649.31;5032925;28;20213;-67
2022/06/14 04:35:52;;;;;;;7.00;4.70;;;;;;;13.90;80.46;98647.97;5032640;28;20730;-68
2022/06/14 04:38:25;;;;;;;6.33;4.67;;;;;;;13.95;80.63;98652.63;5032822;28;20226;-67
2022/06/14 04:41:01;;;;;;;11.60;4.67;;;;;;;14.00;80.66;98650.91;5032831;28;20583;-67
2022/06/14 04:43:40;;;;;;;8.20;5.10;;;;;;;14.10;81.06;98647.66;5032972;28;20263;-67
2022/06/14 04:46:16;;;;;;;8.77;5.50;;;;;;;14.13;81.66;98655.25;5032446;28;20559;-67
2022/06/14 04:48:49;;;;;;;8.10;5.67;;;;;;;14.17;82.77;98651.09;5032674;28;20316;-67
2022/06/14 04:51:31;;;;;;;8.80;5.70;;;;;;;14.22;83.27;98653.91;5015222;28;20269;-68
2022/06/14 04:54:05;;;;;;;10.07;6.13;;;;;;;14.28;83.38;98653.84;5032806;28;20199;-67
2022/06/14 04:57:03;;;;;;;10.10;5.47;;;;;;;14.40;83.56;98643.16;5032353;28;20190;-67
2022/06/14 04:59:46;;;;;;;8.23;5.67;;;;;;;14.48;83.44;98648.19;5014952;28;20338;-68
2022/06/14 05:02:25;;;;;;;10.93;5.90;;;;;;;14.41;82.59;98645.63;5015734;28;20191;-68
2022/06/14 05:04:58;;;;;;;8.20;6.00;;;;;;;14.61;82.95;98638.09;5016484;28;20193;-68
2022/06/14 05:07:32;;;;;;;10.47;6.33;;;;;;;14.88;81.72;98643.84;5032500;28;20281;-68
2022/06/14 05:10:10;;;;;;;9.33;5.80;;;;;;;15.15;78.98;98643.13;5032649;28;20193;-68
2022/06/14 05:13:03;;;;;;;11.60;6.17;;;;;;;15.36;77.81;98637.22;5032590;28;20196;-67
2022/06/14 05:15:39;;;;;;;7.57;5.60;;;;;;;15.60;75.07;98638.78;5032747;28;20280;-68
2022/06/14 05:18:13;;;;;;;8.83;4.73;;;;;;;16.00;72.67;98644.97;5031816;28;20226;-68
2022/06/14 05:20:42;;;;;;;7.53;5.07;;;;;;;16.62;68.20;98648.53;5032093;28;20237;-68
2022/06/14 05:23:35;;;;;;;8.23;5.30;;;;;;;17.03;67.46;98632.84;5014757;28;20220;-68
2022/06/14 05:26:10;;;;;;;7.77;5.20;;;;;;;17.27;66.77;98641.50;5032034;28;20194;-69
2022/06/14 05:28:47;;;;;;;13.37;5.40;;;;;;;17.55;67.41;98631.44;5032476;28;20232;-68
2022/06/14 05:31:23;;;;;;;7.17;5.33;;;;;;;17.11;69.75;98637.81;5018475;28;20196;-68
2022/06/14 05:34:06;;;;;;;8.87;6.20;;;;;;;17.02;68.02;98630.41;5036039;28;20194;-68
2022/06/14 05:36:45;;;;;;;9.17;5.90;;;;;;;16.75;69.11;98638.31;5003654;28;20282;-68
2022/06/14 05:39:35;;;;;;;8.87;5.93;;;;;;;16.64;68.84;98644.56;5002011;28;20670;-68
2022/06/14 05:42:22;;;;;;;7.90;5.63;;;;;;;16.61;69.35;98639.66;5017899;28;20288;-68
2022/06/14 05:44:56;;;;;;;7.87;5.70;;;;;;;16.61;69.35;98642.34;5020345;28;20206;-68
2022/06/14 05:47:34;;;;;;;9.10;6.10;;;;;;;16.49;70.55;98644.31;5035637;28;20193;-69
2022/06/14 05:50:05;;;;;;;11.10;6.40;;;;;;;16.41;69.54;98643.88;5017827;28;20744;-68
2022/06/14 05:52:34;;;;;;;8.07;5.87;;;;;;;16.49;69.64;98652.38;5017809;28;20289;-68
2022/06/14 05:55:10;;;;;;;8.97;6.27;;;;;;;16.45;69.21;98637.78;5017935;28;20695;-68
2022/06/14 05:57:46;;;;;;;9.20;6.70;;;;;;;16.49;69.41;98643.47;5035201;28;20277;-68
2022/06/14 06:00:22;;;;;;;8.93;5.97;;;;;;;16.65;69.97;98651.56;5034778;28;20575;-68
2022/06/14 06:03:12;;;;;;;8.90;5.97;;;;;;;16.61;68.05;98658.47;5034647;28;20704;-68
2022/06/14 06:05:49;;;;;;;13.10;6.27;;;;;;;16.65;68.18;98654.22;5034735;28;20687;-68
2022/06/14 06:08:30;;;;;;;8.87;6.37;;;;;;;16.72;66.36;98644.16;5017654;28;20257;-68
2022/06/14 06:11:01;;;;;;;12.13;5.73;;;;;;;16.76;66.99;98645.31;5035329;28;20194;-68
2022/06/14 06:13:34;;;;;;;8.37;5.43;;;;;;;16.90;65.82;98641.25;5035187;28;20196;-68
2022/06/14 06:16:36;;;;;;;11.13;6.40;;;;;;;16.80;66.47;98646.44;5035092;28;20201;-68
2022/06/14 06:19:09;;;;;;;8.77;5.80;;;;;;;16.56;66.74;98642.28;5026760;28;20241;-68
2022/06/14 06:21:39;;;;;;;13.30;6.03;;;;;;;16.93;65.96;98639.94;5034911;28;20213;-69
2022/06/14 06:24:15;;;;;;;10.73;5.80;;;;;;;17.11;63.69;98640.50;5034089;28;20697;-68
2022/06/14 06:26:45;;;;;;;8.93;5.43;;;;;;;17.13;63.39;98641.06;5032918;28;20202;-69
2022/06/14 06:29:19;;;;;;;6.53;5.60;;;;;;;17.30;62.47;98641.03;5032652;28;20230;-69
2022/06/14 06:31:47;;;;;;;9.30;5.47;;;;;;;17.17;63.50;98647.56;5015055;28;20185;-69
2022/06/14 06:34:17;;;;;;;10.33;6.30;;;;;;;17.04;64.59;98642.53;5032357;28;20579;-69
2022/06/14 06:37:20;;;;;;;11.73;5.93;;;;;;;17.25;64.49;98643.63;5032707;28;20297;-69
2022/06/14 06:40:04;;;;;;;10.77;6.33;;;;;;;17.23;64.62;98645.78;5032200;28;20309;-69
2022/06/14 06:42:46;;;;;;;10.10;5.50;;;;;;;17.32;62.42;98634.34;5032617;28;20213;-69
2022/06/14 06:45:21;;;;;;;9.33;6.10;;;;;;;17.57;62.22;98641.97;5034402;28;20207;-69
2022/06/14 06:48:09;;;;;;;10.73;5.93;;;;;;;17.37;63.46;98642.47;5001255;28;20229;-69
2022/06/14 06:50:55;;;;;;;9.17;5.20;;;;;;;17.67;62.48;98639.41;5017369;28;20272;-70
2022/06/14 06:53:24;;;;;;;9.20;5.17;;;;;;;17.88;59.06;98644.78;5034445;28;20552;-69
2022/06/14 06:56:02;;;;;;;9.97;5.83;;;;;;;17.72;60.72;98639.44;5034322;28;20240;-69
2022/06/14 06:58:35;;;;;;;10.20;5.47;;;;;;;17.74;61.00;98637.34;5034504;28;20232;-69
2022/06/14 07:01:25;;;;;;;9.73;5.57;;;;;;;17.65;60.70;98631.56;5034238;28;20210;-69
2022/06/14 07:04:01;;;;;;;10.30;5.83;;;;;;;17.66;60.39;98629.72;5019911;28;20204;-69
2022/06/14 07:06:33;;;;;;;9.57;5.40;;;;;;;17.85;59.44;98633.69;5017117;28;20190;-69
2022/06/14 07:09:10;;;;;;;6.87;5.17;;;;;;;17.85;59.02;98634.53;5000760;28;20241;-69
2022/06/14 07:11:46;;;;;;;11.63;5.40;;;;;;;17.94;58.73;98632.19;5016562;28;20284;-69
2022/06/14 07:14:32;;;;;;;10.10;5.43;;;;;;;18.08;57.64;98638.81;5001047;28;20653;-68
2022/06/14 07:17:07;;;;;;;7.80;5.30;;;;;;;17.99;58.50;98633.06;5033947;28;20190;-69
2022/06/14 07:19:41;;;;;;;8.30;5.73;;;;;;;18.08;59.29;98620.78;5034092;28;20229;-69
2022/06/14 07:22:21;;;;;;;8.50;4.43;;;;;;;18.18;55.96;98628.97;5034299;28;20662;-69
2022/06/14 07:25:07;;;;;;;6.20;4.43;;;;;;;18.24;56.38;98630.63;5034111;28;20280;-70
2022/06/14 07:27:49;;;;;;;9.00;5.23;;;;;;;18.32;56.46;98635.56;5033924;28;20297;-69
2022/06/14 07:30:21;;;;;;;12.20;5.37;;;;;;;18.45;55.69;98634.38;5017657;28;20194;-69
2022/06/14 07:32:52;;;;;;;8.80;4.93;;;;;;;18.47;55.73;98634.94;5032853;28;20740;-69
2022/06/14 07:35:28;;;;;;;8.77;4.43;;;;;;;18.75;53.32;98640.03;5033842;28;20190;-69
2022/06/14 07:38:02;;;;;;;6.40;3.97;;;;;;;19.02;53.13;98633.53;5033324;28;20644;-69
2022/06/14 07:40:34;;;;;;;8.37;4.27;;;;;;;19.22;52.35;98631.00;5033453;28;20583;-69
2022/06/14 07:43:16;;;;;;;9.40;4.43;;;;;;;19.33;54.10;98624.59;5033595;28;20225;-69
2022/06/14 07:45:47;;;;;;;9.47;4.40;;;;;;;19.10;51.83;98624.94;5033930;28;20531;-69
2022/06/14 07:48:35;;;;;;;5.60;4.40;;;;;;;19.23;52.86;98631.81;5033556;28;20312;-69
2022/06/14 07:51:15;;;;;;;7.80;4.53;;;;;;;19.48;53.91;98628.47;5033668;28;20282;-69
2022/06/14 07:53:53;;;;;;;6.13;4.20;;;;;;;19.55;52.03;98632.53;5033285;28;20224;-69
2022/06/14 07:56:24;;;;;;;7.63;4.70;;;;;;;19.71;50.69;98628.03;5033755;28;20195;-69
2022/06/14 07:59:03;;;;;;;7.90;4.07;;;;;;;19.83;48.88;98634.81;5033695;28;20230;-69
2022/06/14 08:01:46;;;;;;;6.80;3.33;;;;;;;19.53;47.38;98618.50;5033409;28;20209;-68
2022/06/14 08:04:37;;;;;;;5.50;3.73;;;;;;;19.58;48.33;98618.50;5033349;28;20624;-69
2022/06/14 08:07:10;;;;;;;6.30;3.77;;;;;;;19.69;48.47;98621.00;5033589;28;20229;-69
2022/06/14 08:09:41;;;;;;;7.40;3.73;;;;;;;19.94;48.21;98620.28;5033185;28;20226;-69
2022/06/14 08:12:20;;;;;;;7.83;4.07;;;;;;;20.13;49.75;98626.88;5033156;28;20547;-69
2022/06/14 08:15:05;;;;;;;6.77;3.90;;;;;;;20.29;48.37;98627.69;5033158;28;20281;-69
2022/06/14 08:17:47;;;;;;;7.67;3.50;;;;;;;20.21;46.82;98615.53;5033303;28;20229;-69
2022/06/14 08:20:37;;;;;;;11.73;3.70;;;;;;;20.37;47.52;98622.59;5016217;28;20194;-69
2022/06/14 08:23:13;;;;;;;7.10;3.50;;;;;;;20.25;45.79;98622.00;5033285;28;20221;-69
2022/06/14 08:25:45;;;;;;;7.63;3.73;;;;;;;20.46;45.37;98623.69;5016466;28;20200;-69
2022/06/14 08:28:18;;;;;;;6.47;3.53;;;;;;;20.43;45.08;98631.53;5015968;28;20249;-69
2022/06/14 08:30:59;;;;;;;8.37;3.87;;;;;;;20.60;47.20;98629.34;5032818;28;20641;-69
2022/06/14 08:33:36;;;;;;;8.93;3.97;;;;;;;20.74;47.66;98630.44;5015451;28;20648;-69
2022/06/14 08:36:08;;;;;;;7.07;3.80;;;;;;;20.81;47.04;98626.41;5015946;28;20736;-69
2022/06/14 08:38:45;;;;;;;7.10;3.93;;;;;;;20.18;46.83;98624.19;5033115;28;20316;-69
2022/06/14 08:41:33;;;;;;;4.70;3.53;;;;;;;20.49;47.79;98619.63;5033248;28;20206;-69
2022/06/14 08:44:09;;;;;;;6.67;3.57;;;;;;;21.00;46.87;98622.09;5032879;28;20300;-69
2022/06/14 08:47:04;;;;;;;7.53;3.40;;;;;;;21.13;46.31;98618.84;5032750;28;20596;-69
2022/06/14 08:50:23;;;;;;;5.23;3.50;;;;;;;21.01;44.30;98618.31;5017983;28;20234;-69
2022/06/14 08:53:17;;;;;;;6.37;3.40;;;;;;;20.87;45.12;98614.50;5008274;28;20291;-70
2022/06/14 08:55:55;;;;;;;7.80;3.80;;;;;;;21.21;46.94;98601.25;5016039;28;20281;-69
2022/06/14 08:58:54;;;;;;;4.87;3.50;;;;;;;21.19;45.39;98598.00;5032463;28;20728;-69
2022/06/14 09:01:45;;;;;;;6.33;3.67;;;;;;;21.56;47.32;98599.25;5012007;28;20232;-70
2022/06/14 09:04:54;;;;;;;6.27;3.47;;;;;;;21.63;45.83;98601.66;5035106;28;20273;-69
2022/06/14 09:07:39;;;;;;;5.90;3.60;;;;;;;21.30;46.06;98597.69;5018885;28;20212;-69
2022/06/14 09:10:24;;;;;;;4.87;3.70;;;;;;;21.44;45.36;98584.41;5036306;28;20208;-69
2022/06/14 09:13:32;;;;;;;6.87;3.80;;;;;;;21.64;43.49;98579.75;5037177;28;20661;-71
2022/06/14 09:16:10;;;;;;;6.33;3.50;;;;;;;21.86;45.43;98573.97;5017563;28;20259;-69
2022/06/14 09:19:23;;;;;;;6.87;3.07;;;;;;;21.89;40.56;98576.16;5037162;28;20222;-69
2022/06/14 09:21:52;;;;;;;6.87;3.30;;;;;;;21.70;43.56;98575.16;5013228;28;20233;-69
2022/06/14 09:24:28;;;;;;;7.10;3.57;;;;;;;22.12;45.28;98578.97;5036101;28;20206;-70
2022/06/14 09:27:12;;;;;;;6.00;3.17;;;;;;;21.88;42.06;98575.31;5018601;28;20285;-70
2022/06/14 09:30:12;;;;;;;6.47;3.17;;;;;;;22.07;41.46;98562.75;5018292;28;20661;-70
2022/06/14 09:33:13;;;;;;;5.00;2.63;;;;;;;21.88;41.13;98563.69;5035929;28;20183;-70
2022/06/14 09:35:54;;;;;;;4.40;2.30;;;;;;;22.01;41.04;98563.88;5021572;28;20198;-69
2022/06/14 09:39:01;;;;;;;5.72;2.95;;;;;;;22.33;41.96;98560.69;5035768;28;20309;-69
2022/06/14 09:41:59;;;;;;;6.73;3.47;;;;;;;21.60;43.98;98561.63;5018309;28;20214;-69
2022/06/14 09:45:01;;;;;;;7.05;3.25;;;;;;;22.49;42.11;98559.53;5035905;28;20190;-70
2022/06/14 09:47:51;;;;;;;6.53;3.45;;;;;;;22.36;39.88;98558.25;5035625;28;20548;-69
2022/06/14 09:50:56;;;;;;;7.60;3.05;;;;;;;22.43;41.02;98556.00;5003639;28;20304;-69
2022/06/14 09:53:34;;;;;;;7.10;3.17;;;;;;;22.97;38.70;98553.94;5018180;28;20281;-70
2022/06/14 09:56:38;;;;;;;5.07;2.90;;;;;;;23.25;40.00;98553.13;5035760;28;20245;-69
2022/06/14 09:59:35;;;;;;;3.45;2.67;;;;;;;23.09;38.06;98553.53;5035140;28;20600;-69
2022/06/14 10:02:14;;;;;;;6.00;3.30;;;;;;;23.26;38.11;98553.94;5017962;28;20210;-69
2022/06/14 10:04:50;;;;;;;8.98;3.20;;;;;;;23.02;37.70;98548.44;5035632;28;20194;-69
2022/06/14 10:08:03;;;;;;;6.13;2.92;;;;;;;22.55;39.16;98537.53;5036377;28;20276;-69
2022/06/14 10:10:59;;;;;;;5.25;3.20;;;;;;;22.33;37.38;98533.59;5035236;28;20198;-69
2022/06/14 10:14:03;;;;;;;5.72;3.10;;;;;;;22.61;37.99;98528.25;5035057;28;20277;-69
2022/06/14 10:16:36;;;;;;;4.43;2.75;;;;;;;22.98;37.99;98528.41;5034398;28;20647;-69
2022/06/14 10:19:34;;;;;;;4.95;3.28;;;;;;;22.71;38.05;98530.84;5035131;28;20594;-69
2022/06/14 10:22:24;;;;;;;4.68;2.72;;;;;;;23.17;38.13;98520.38;5035143;28;20214;-69
2022/06/14 10:25:16;;;;;;;6.43;3.25;;;;;;;23.35;36.79;98523.19;5035337;28;20221;-69
2022/06/14 10:28:12;;;;;;;6.53;2.92;;;;;;;23.38;38.04;98519.06;5034794;28;20308;-69
2022/06/14 10:31:10;;;;;;;3.88;2.80;;;;;;;23.69;37.05;98526.53;5035473;28;20194;-69
2022/06/14 10:33:37;;;;;;;4.72;3.08;;;;;;;23.11;37.61;98519.59;5034435;28;20624;-69
2022/06/14 10:36:22;;;;;;;4.10;2.92;;;;;;;23.55;38.51;98522.09;5034164;28;20721;-69
2022/06/14 10:39:08;;;;;;;7.65;3.70;;;;;;;23.37;37.96;98522.84;5033800;28;20727;-69
2022/06/14 10:41:52;;;;;;;6.15;3.40;;;;;;;23.16;39.82;98526.88;5002993;28;20230;-69
2022/06/14 10:44:39;;;;;;;4.55;3.10;;;;;;;23.17;38.77;98526.59;5034603;28;20198;-69
2022/06/14 10:47:24;;;;;;;5.82;3.20;;;;;;;22.75;38.85;98522.97;5034697;28;20198;-69
2022/06/14 10:50:05;;;;;;;5.45;3.05;;;;;;;23.08;37.18;98514.78;5034385;28;20216;-70
2022/06/14 10:52:54;;;;;;;3.22;2.92;;;;;;;23.12;36.45;98515.81;5034567;28;20293;-69
2022/06/14 10:55:39;;;;;;;4.03;2.42;;;;;;;23.15;38.25;98509.00;5016663;28;20273;-69
2022/06/14 10:58:39;;;;;;;4.15;2.38;;;;;;;23.36;36.50;98508.50;5001210;28;20230;-70
2022/06/14 11:01:13;;;;;;;2.88;2.53;;;;;;;23.88;35.60;98504.84;5035065;28;20217;-69
2022/06/14 11:03:45;;;;;;;5.07;2.55;;;;;;;23.80;34.25;98508.19;5017657;28;20277;-69
2022/06/14 11:06:42;;;;;;;5.68;2.80;;;;;;;23.74;34.43;98504.72;5034384;28;20190;-69
2022/06/14 11:09:33;;;;;;;5.55;3.20;;;;;;;22.97;35.22;98501.63;5034418;28;20743;-69
2022/06/14 11:12:10;;;;;;;4.63;2.55;;;;;;;23.35;33.37;98500.66;5034354;28;20273;-70
2022/06/14 11:14:50;;;;;;;3.72;2.58;;;;;;;22.71;33.79;98492.13;5033844;28;20189;-69
2022/06/14 11:17:38;;;;;;;5.25;2.60;;;;;;;23.70;35.95;98500.19;5016151;28;20283;-70
2022/06/14 11:20:33;;;;;;;5.72;2.80;;;;;;;23.77;35.10;98500.63;5034474;28;20236;-69
2022/06/14 11:23:19;;;;;;;5.70;2.72;;;;;;;23.69;34.39;98487.72;5016336;28;20292;-69
2022/06/14 11:25:57;;;;;;;6.97;2.97;;;;;;;23.49;35.44;98493.41;5033390;28;20664;-69
2022/06/14 11:28:50;;;;;;;4.85;2.72;;;;;;;23.59;35.14;98487.84;5032839;28;20229;-70
2022/06/14 11:31:33;;;;;;;5.75;2.95;;;;;;;23.50;36.90;98478.72;5016412;28;20295;-69
2022/06/14 11:34:19;;;;;;;6.35;3.00;;;;;;;23.62;38.47;98476.41;5015982;28;20201;-69
2022/06/14 11:37:05;;;;;;;6.45;2.78;;;;;;;23.81;38.83;98480.75;5033588;28;20320;-70
2022/06/14 11:39:59;;;;;;;6.65;3.17;;;;;;;23.94;37.50;98477.34;5016221;28;20229;-69
2022/06/14 11:42:47;;;;;;;4.80;2.90;;;;;;;24.06;36.82;98474.16;5016504;28;20301;-70
2022/06/14 11:45:26;;;;;;;6.85;2.78;;;;;;;24.04;35.41;98477.19;5033584;28;20209;-69
2022/06/14 11:48:17;;;;;;;5.10;2.88;;;;;;;24.11;35.10;98469.44;5033692;28;20247;-69
2022/06/14 11:51:01;;;;;;;3.42;2.70;;;;;;;24.26;34.23;98471.94;5033421;28;20190;-69
2022/06/14 11:53:51;;;;;;;4.65;2.80;;;;;;;24.20;35.23;98467.66;5016401;28;20187;-69
2022/06/14 11:56:39;;;;;;;4.85;2.78;;;;;;;23.88;33.91;98478.47;5033158;28;20545;-69
2022/06/14 11:59:23;;;;;;;4.10;2.78;;;;;;;23.82;32.26;98470.69;5033134;28;20233;-69
2022/06/14 12:02:08;;;;;;;6.85;2.70;;;;;;;23.64;32.27;98471.47;5033013;28;20295;-70
2022/06/14 12:04:48;;;;;;;5.03;2.65;;;;;;;23.95;36.68;98459.94;5033448;28;20196;-69
2022/06/14 12:07:18;;;;;;;2.92;2.53;;;;;;;24.04;36.59;98455.44;5017084;28;20197;-69
2022/06/14 12:09:51;;;;;;;5.35;2.97;;;;;;;24.19;35.58;98454.41;5033418;28;20230;-70
2022/06/14 12:12:17;;;;;;;5.25;2.92;;;;;;;24.04;36.03;98444.56;5033275;28;20288;-69
2022/06/14 12:14:56;;;;;;;3.53;2.60;;;;;;;24.27;35.67;98440.94;5033007;28;20569;-70
2022/06/14 12:17:31;;;;;;;4.32;2.70;;;;;;;23.90;34.51;98448.31;5016524;28;20197;-70
2022/06/14 12:20:08;;;;;;;4.53;2.67;;;;;;;24.06;35.55;98441.56;5032533;28;20563;-70
2022/06/14 12:22:44;;;;;;;4.07;2.83;;;;;;;24.27;32.27;98431.97;5032892;28;20231;-70
2022/06/14 12:28:09;;;;;;;5.10;2.35;;;;;;;23.74;33.93;98428.72;5018167;28;20692;-70
2022/06/14 12:30:37;;;;;;;4.93;2.58;;;;;;;24.19;31.99;98435.38;5032865;28;20285;-69
2022/06/14 12:33:09;;;;;;;3.28;2.55;;;;;;;24.41;32.65;98435.53;5015357;28;20202;-69
2022/06/14 12:35:41;;;;;;;3.83;2.40;;;;;;;24.38;30.97;98436.13;5032884;28;20691;-69
2022/06/14 12:38:19;;;;;;;6.18;2.40;;;;;;;24.42;32.27;98429.78;5033097;28;20233;-70
2022/06/14 12:40:52;;;;;;;3.40;2.17;;;;;;;24.64;29.72;98426.44;5019163;28;20276;-70